sensor_id;sensor_type;location;lat;lon;timestamp;temperature;humidity
75436;DHT22;64014;53.432;14.534;2022-11-15T06:26:03;6.20;85.10
75436;DHT22;64014;53.432;14.534;2022-11-15T06:28:33;6.10;85.40
75436;DHT22;64014;53.432;14.534;2022-11-15T06:31:09;6.10;85.80
75436;DHT22;64014;53.432;14.534;2022-11-15T06:33:37;6.20;86.00
75436;DHT22;64014;53.432;14.534;2022-11-15T06:36:04;6.30;86.00
75436;DHT22;64014;53.432;14.534;2022-11-15T06:38:30;6.40;85.70
75436;DHT22;64014;53.432;14.534;2022-11-15T06:41:01;6.40;85.30
75436;DHT22;64014;53.432;14.534;2022-11-15T06:43:27;6.50;85.00
75436;DHT22;64014;53.432;14.534;2022-11-15T06:45:52;6.60;84.70
75436;DHT22;64014;53.432;14.534;2022-11-15T06:48:18;6.70;84.20
75436;DHT22;64014;53.432;14.534;2022-11-15T06:50:53;6.70;83.70
75436;DHT22;64014;53.432;14.534;2022-11-15T06:53:19;6.80;83.50
75436;DHT22;64014;53.432;14.534;2022-11-15T06:55:45;6.80;83.00
75436;DHT22;64014;53.432;14.534;2022-11-15T06:58:11;6.80;82.80
75436;DHT22;64014;53.432;14.534;2022-11-15T07:00:36;6.90;82.70
75436;DHT22;64014;53.432;14.534;2022-11-15T07:03:02;6.90;82.50
75436;DHT22;64014;53.432;14.534;2022-11-15T07:05:29;7.00;82.40
75436;DHT22;64014;53.432;14.534;2022-11-15T07:07:56;7.00;82.10
75436;DHT22;64014;53.432;14.534;2022-11-15T07:10:22;7.00;81.50
75436;DHT22;64014;53.432;14.534;2022-11-15T07:12:50;7.00;81.20
75436;DHT22;64014;53.432;14.534;2022-11-15T07:15:19;7.00;81.20
75436;DHT22;64014;53.432;14.534;2022-11-15T07:17:45;7.10;81.20
75436;DHT22;64014;53.432;14.534;2022-11-15T07:20:12;7.00;81.00
75436;DHT22;64014;53.432;14.534;2022-11-15T07:22:42;7.00;81.10
75436;DHT22;64014;53.432;14.534;2022-11-15T07:25:08;7.10;81.20
75436;DHT22;64014;53.432;14.534;2022-11-15T07:27:34;7.20;81.10
75436;DHT22;64014;53.432;14.534;2022-11-15T07:30:01;7.20;81.10
75436;DHT22;64014;53.432;14.534;2022-11-15T07:32:27;7.20;80.90
75436;DHT22;64014;53.432;14.534;2022-11-15T07:34:52;7.20;80.80
75436;DHT22;64014;53.432;14.534;2022-11-15T07:37:18;7.30;80.70
75436;DHT22;64014;53.432;14.534;2022-11-15T07:39:44;7.40;80.50
75436;DHT22;64014;53.432;14.534;2022-11-15T07:42:10;7.50;80.10
75436;DHT22;64014;53.432;14.534;2022-11-15T07:44:54;7.50;79.80
75436;DHT22;64014;53.432;14.534;2022-11-15T07:47:20;7.60;79.50
75436;DHT22;64014;53.432;14.534;2022-11-15T07:49:46;7.60;79.10
75436;DHT22;64014;53.432;14.534;2022-11-15T07:52:13;7.60;78.90
75436;DHT22;64014;53.432;14.534;2022-11-15T07:54:39;7.60;78.70
75436;DHT22;64014;53.432;14.534;2022-11-15T07:57:05;7.60;78.60
75436;DHT22;64014;53.432;14.534;2022-11-15T07:59:32;7.70;78.60
75436;DHT22;64014;53.432;14.534;2022-11-15T08:01:58;7.80;78.40
75436;DHT22;64014;53.432;14.534;2022-11-15T08:04:24;7.80;78.20
75436;DHT22;64014;53.432;14.534;2022-11-15T08:06:50;7.90;78.00
75436;DHT22;64014;53.432;14.534;2022-11-15T08:09:15;8.00;77.60
75436;DHT22;64014;53.432;14.534;2022-11-15T08:11:41;8.00;77.30
75436;DHT22;64014;53.432;14.534;2022-11-15T08:14:07;8.00;77.20
75436;DHT22;64014;53.432;14.534;2022-11-15T08:16:33;8.00;76.90
75436;DHT22;64014;53.432;14.534;2022-11-15T08:18:58;8.10;77.00
75436;DHT22;64014;53.432;14.534;2022-11-15T08:21:24;8.20;76.90
75436;DHT22;64014;53.432;14.534;2022-11-15T08:23:50;8.20;76.50
75436;DHT22;64014;53.432;14.534;2022-11-15T08:26:16;8.20;76.20
75436;DHT22;64014;53.432;14.534;2022-11-15T08:28:42;8.20;76.30
75436;DHT22;64014;53.432;14.534;2022-11-15T08:31:16;8.20;76.00
75436;DHT22;64014;53.432;14.534;2022-11-15T08:33:43;8.20;75.80
75436;DHT22;64014;53.432;14.534;2022-11-15T08:36:15;8.20;75.50
75436;DHT22;64014;53.432;14.534;2022-11-15T08:38:41;8.20;75.50
75436;DHT22;64014;53.432;14.534;2022-11-15T08:41:09;8.20;75.60
75436;DHT22;64014;53.432;14.534;2022-11-15T08:43:36;8.20;75.50
75436;DHT22;64014;53.432;14.534;2022-11-15T08:46:02;8.20;75.50
75436;DHT22;64014;53.432;14.534;2022-11-15T08:48:27;8.20;75.40
75436;DHT22;64014;53.432;14.534;2022-11-15T08:50:56;8.20;75.40
75436;DHT22;64014;53.432;14.534;2022-11-15T08:53:22;8.20;75.50
75436;DHT22;64014;53.432;14.534;2022-11-15T08:55:48;8.20;75.50
75436;DHT22;64014;53.432;14.534;2022-11-15T08:58:13;8.30;75.50
75436;DHT22;64014;53.432;14.534;2022-11-15T09:00:39;8.30;75.20
75436;DHT22;64014;53.432;14.534;2022-11-15T09:03:06;8.30;75.20
75436;DHT22;64014;53.432;14.534;2022-11-15T09:05:36;8.30;75.00
75436;DHT22;64014;53.432;14.534;2022-11-15T09:08:03;8.30;75.00
75436;DHT22;64014;53.432;14.534;2022-11-15T09:10:29;8.40;74.80
75436;DHT22;64014;53.432;14.534;2022-11-15T09:12:57;8.40;74.90
75436;DHT22;64014;53.432;14.534;2022-11-15T09:15:22;8.50;74.70
75436;DHT22;64014;53.432;14.534;2022-11-15T09:17:48;8.50;74.40
75436;DHT22;64014;53.432;14.534;2022-11-15T09:20:14;8.60;74.30
75436;DHT22;64014;53.432;14.534;2022-11-15T09:22:40;8.60;74.30
75436;DHT22;64014;53.432;14.534;2022-11-15T09:25:06;8.70;74.00
75436;DHT22;64014;53.432;14.534;2022-11-15T09:27:32;8.80;73.60
75436;DHT22;64014;53.432;14.534;2022-11-15T09:29:58;8.90;73.20
75436;DHT22;64014;53.432;14.534;2022-11-15T09:32:24;9.00;72.80
75436;DHT22;64014;53.432;14.534;2022-11-15T09:34:53;9.10;72.70
75436;DHT22;64014;53.432;14.534;2022-11-15T09:37:19;9.20;72.50
75436;DHT22;64014;53.432;14.534;2022-11-15T09:39:44;9.20;72.00
75436;DHT22;64014;53.432;14.534;2022-11-15T09:45:18;9.20;71.90
75436;DHT22;64014;53.432;14.534;2022-11-15T09:50:37;9.20;71.90
75436;DHT22;64014;53.432;14.534;2022-11-15T09:53:04;9.40;71.60
75436;DHT22;64014;53.432;14.534;2022-11-15T09:55:51;9.40;71.50
75436;DHT22;64014;53.432;14.534;2022-11-15T09:58:43;9.30;71.50
75436;DHT22;64014;53.432;14.534;2022-11-15T10:01:21;9.40;71.50
75436;DHT22;64014;53.432;14.534;2022-11-15T10:03:56;9.30;71.50
75436;DHT22;64014;53.432;14.534;2022-11-15T10:06:26;9.40;71.70
75436;DHT22;64014;53.432;14.534;2022-11-15T10:11:24;9.40;71.60
75436;DHT22;64014;53.432;14.534;2022-11-15T10:13:53;9.50;71.20
75436;DHT22;64014;53.432;14.534;2022-11-15T10:21:37;9.50;71.40
75436;DHT22;64014;53.432;14.534;2022-11-15T10:24:12;9.40;71.60
75436;DHT22;64014;53.432;14.534;2022-11-15T10:26:44;9.40;71.60
75436;DHT22;64014;53.432;14.534;2022-11-15T10:29:11;9.40;71.70
75436;DHT22;64014;53.432;14.534;2022-11-15T10:31:39;9.30;71.60
75436;DHT22;64014;53.432;14.534;2022-11-15T10:34:17;9.20;72.20
75436;DHT22;64014;53.432;14.534;2022-11-15T10:36:57;9.30;72.40
75436;DHT22;64014;53.432;14.534;2022-11-15T10:39:23;9.40;72.10
75436;DHT22;64014;53.432;14.534;2022-11-15T10:41:49;9.60;71.40
75436;DHT22;64014;53.432;14.534;2022-11-15T10:49:29;10.00;70.00
75436;DHT22;64014;53.432;14.534;2022-11-15T10:51:59;10.10;69.70
75436;DHT22;64014;53.432;14.534;2022-11-15T10:54:41;10.00;69.50
75436;DHT22;64014;53.432;14.534;2022-11-15T10:57:23;10.00;69.50
75436;DHT22;64014;53.432;14.534;2022-11-15T10:59:58;10.00;69.70
75436;DHT22;64014;53.432;14.534;2022-11-15T11:02:31;10.00;69.80
75436;DHT22;64014;53.432;14.534;2022-11-15T11:04:58;10.00;69.90
75436;DHT22;64014;53.432;14.534;2022-11-15T11:07:27;10.00;69.90
75436;DHT22;64014;53.432;14.534;2022-11-15T11:09:59;10.00;69.90
75436;DHT22;64014;53.432;14.534;2022-11-15T11:12:30;10.00;69.90
75436;DHT22;64014;53.432;14.534;2022-11-15T11:14:58;9.70;70.40
75436;DHT22;64014;53.432;14.534;2022-11-15T11:20:29;9.70;70.80
75436;DHT22;64014;53.432;14.534;2022-11-15T11:31:34;10.00;70.70
75436;DHT22;64014;53.432;14.534;2022-11-15T11:37:51;10.10;70.40
75436;DHT22;64014;53.432;14.534;2022-11-15T11:40:30;10.30;69.90
75436;DHT22;64014;53.432;14.534;2022-11-15T11:43:31;10.30;69.50
75436;DHT22;64014;53.432;14.534;2022-11-15T11:49:06;10.30;69.60
75436;DHT22;64014;53.432;14.534;2022-11-15T11:51:41;10.20;69.70
75436;DHT22;64014;53.432;14.534;2022-11-15T11:54:31;10.00;70.40
75436;DHT22;64014;53.432;14.534;2022-11-15T11:57:00;9.70;70.80
75436;DHT22;64014;53.432;14.534;2022-11-15T12:00:14;9.40;71.70
75436;DHT22;64014;53.432;14.534;2022-11-15T12:02:44;9.00;72.80
75436;DHT22;64014;53.432;14.534;2022-11-15T12:07:38;8.60;74.50
75436;DHT22;64014;53.432;14.534;2022-11-15T12:10:15;8.60;75.00
75436;DHT22;64014;53.432;14.534;2022-11-15T12:12:52;8.60;75.10
75436;DHT22;64014;53.432;14.534;2022-11-15T12:17:46;8.40;75.60
75436;DHT22;64014;53.432;14.534;2022-11-15T12:20:18;8.40;75.90
75436;DHT22;64014;53.432;14.534;2022-11-15T12:22:57;8.30;76.20
75436;DHT22;64014;53.432;14.534;2022-11-15T12:25:52;8.30;76.40
75436;DHT22;64014;53.432;14.534;2022-11-15T12:31:14;8.50;76.50
75436;DHT22;64014;53.432;14.534;2022-11-15T12:33:46;8.50;76.40
75436;DHT22;64014;53.432;14.534;2022-11-15T12:36:35;8.50;76.40
75436;DHT22;64014;53.432;14.534;2022-11-15T12:41:31;8.30;77.30
75436;DHT22;64014;53.432;14.534;2022-11-15T12:43:58;8.30;77.50
75436;DHT22;64014;53.432;14.534;2022-11-15T12:49:01;8.40;77.40
75436;DHT22;64014;53.432;14.534;2022-11-15T13:20:51;7.90;79.70
75436;DHT22;64014;53.432;14.534;2022-11-15T13:23:17;8.00;79.50
75436;DHT22;64014;53.432;14.534;2022-11-15T13:25:54;7.80;79.50
75436;DHT22;64014;53.432;14.534;2022-11-15T13:31:40;7.70;80.10
75436;DHT22;64014;53.432;14.534;2022-11-15T13:34:26;7.80;80.10
75436;DHT22;64014;53.432;14.534;2022-11-15T13:36:52;7.60;79.80
75436;DHT22;64014;53.432;14.534;2022-11-15T13:39:30;7.50;80.10
75436;DHT22;64014;53.432;14.534;2022-11-15T13:41:56;7.40;80.80
75436;DHT22;64014;53.432;14.534;2022-11-15T13:44:25;7.20;81.30
75436;DHT22;64014;53.432;14.534;2022-11-15T13:47:12;7.10;81.60
75436;DHT22;64014;53.432;14.534;2022-11-15T13:49:38;7.00;81.90
75436;DHT22;64014;53.432;14.534;2022-11-15T13:52:07;7.10;82.10
75436;DHT22;64014;53.432;14.534;2022-11-15T13:59:45;7.30;81.70
75436;DHT22;64014;53.432;14.534;2022-11-15T14:02:12;7.30;81.60
75436;DHT22;64014;53.432;14.534;2022-11-15T14:04:49;7.30;81.50
75436;DHT22;64014;53.432;14.534;2022-11-15T14:07:18;7.20;81.50
75436;DHT22;64014;53.432;14.534;2022-11-15T14:09:44;7.10;81.90
75436;DHT22;64014;53.432;14.534;2022-11-15T14:12:34;7.00;82.30
75436;DHT22;64014;53.432;14.534;2022-11-15T14:15:17;7.00;82.70
75436;DHT22;64014;53.432;14.534;2022-11-15T14:17:43;6.90;83.00
75436;DHT22;64014;53.432;14.534;2022-11-15T14:20:40;6.90;83.30
75436;DHT22;64014;53.432;14.534;2022-11-15T14:23:24;6.80;83.70
75436;DHT22;64014;53.432;14.534;2022-11-15T14:25:58;6.80;83.90
75436;DHT22;64014;53.432;14.534;2022-11-15T14:30:52;6.80;84.20
75436;DHT22;64014;53.432;14.534;2022-11-15T14:35:57;6.90;84.40
75436;DHT22;64014;53.432;14.534;2022-11-15T14:38:24;6.90;84.40
75436;DHT22;64014;53.432;14.534;2022-11-15T14:40:51;7.00;84.30
75436;DHT22;64014;53.432;14.534;2022-11-15T14:43:17;7.00;84.20
75436;DHT22;64014;53.432;14.534;2022-11-15T14:45:43;7.00;83.80
75436;DHT22;64014;53.432;14.534;2022-11-15T14:48:09;7.00;83.80
75436;DHT22;64014;53.432;14.534;2022-11-15T14:50:35;7.00;83.90
75436;DHT22;64014;53.432;14.534;2022-11-15T14:53:01;7.00;83.70
75436;DHT22;64014;53.432;14.534;2022-11-15T14:55:30;7.00;83.80
75436;DHT22;64014;53.432;14.534;2022-11-15T14:58:02;6.90;84.10
75436;DHT22;64014;53.432;14.534;2022-11-15T15:00:29;6.90;84.30
75436;DHT22;64014;53.432;14.534;2022-11-15T15:02:56;6.90;84.40
75436;DHT22;64014;53.432;14.534;2022-11-15T15:07:52;6.70;84.70
75436;DHT22;64014;53.432;14.534;2022-11-15T15:10:21;6.70;85.00
75436;DHT22;64014;53.432;14.534;2022-11-15T15:12:47;6.70;85.10
75436;DHT22;64014;53.432;14.534;2022-11-15T15:15:15;6.80;85.20
75436;DHT22;64014;53.432;14.534;2022-11-15T15:17:42;6.80;85.30
75436;DHT22;64014;53.432;14.534;2022-11-15T15:20:08;6.80;85.20
75436;DHT22;64014;53.432;14.534;2022-11-15T15:22:34;6.90;85.10
75436;DHT22;64014;53.432;14.534;2022-11-15T15:25:00;6.90;84.90
75436;DHT22;64014;53.432;14.534;2022-11-15T15:27:26;6.90;84.70
75436;DHT22;64014;53.432;14.534;2022-11-15T15:29:51;6.90;84.70
75436;DHT22;64014;53.432;14.534;2022-11-15T15:32:17;6.90;84.70
75436;DHT22;64014;53.432;14.534;2022-11-15T15:34:43;7.00;84.40
75436;DHT22;64014;53.432;14.534;2022-11-15T15:37:25;6.90;84.30
75436;DHT22;64014;53.432;14.534;2022-11-15T15:39:52;6.70;84.40
75436;DHT22;64014;53.432;14.534;2022-11-15T15:42:19;6.70;84.70
75436;DHT22;64014;53.432;14.534;2022-11-15T15:44:46;6.60;85.00
75436;DHT22;64014;53.432;14.534;2022-11-15T15:47:20;6.50;85.40
75436;DHT22;64014;53.432;14.534;2022-11-15T15:49:46;6.50;85.70
75436;DHT22;64014;53.432;14.534;2022-11-15T15:52:12;6.40;86.10
75436;DHT22;64014;53.432;14.534;2022-11-15T15:54:39;6.40;86.30
75436;DHT22;64014;53.432;14.534;2022-11-15T15:57:06;6.40;86.50
75436;DHT22;64014;53.432;14.534;2022-11-15T15:59:32;6.50;86.70
75436;DHT22;64014;53.432;14.534;2022-11-15T16:01:58;6.50;86.70
75436;DHT22;64014;53.432;14.534;2022-11-15T16:04:24;6.50;86.80
75436;DHT22;64014;53.432;14.534;2022-11-15T16:06:53;6.50;86.70
75436;DHT22;64014;53.432;14.534;2022-11-15T16:09:23;6.50;86.90
75436;DHT22;64014;53.432;14.534;2022-11-15T16:12:08;6.50;86.90
75436;DHT22;64014;53.432;14.534;2022-11-15T16:14:34;6.40;86.90
75436;DHT22;64014;53.432;14.534;2022-11-15T16:17:00;6.40;87.10
75436;DHT22;64014;53.432;14.534;2022-11-15T16:19:25;6.40;87.10
75436;DHT22;64014;53.432;14.534;2022-11-15T16:21:51;6.40;87.20
75436;DHT22;64014;53.432;14.534;2022-11-15T16:24:18;6.40;87.30
75436;DHT22;64014;53.432;14.534;2022-11-15T16:26:44;6.40;87.40
75436;DHT22;64014;53.432;14.534;2022-11-15T16:29:10;6.40;87.50
75436;DHT22;64014;53.432;14.534;2022-11-15T16:31:36;6.40;87.40
75436;DHT22;64014;53.432;14.534;2022-11-15T16:34:02;6.40;87.50
75436;DHT22;64014;53.432;14.534;2022-11-15T16:36:31;6.40;87.60
75436;DHT22;64014;53.432;14.534;2022-11-15T16:38:58;6.40;87.70
75436;DHT22;64014;53.432;14.534;2022-11-15T16:41:25;6.40;87.80
75436;DHT22;64014;53.432;14.534;2022-11-15T16:43:51;6.50;87.90
75436;DHT22;64014;53.432;14.534;2022-11-15T16:46:27;6.50;88.00
75436;DHT22;64014;53.432;14.534;2022-11-15T16:48:54;6.50;87.90
75436;DHT22;64014;53.432;14.534;2022-11-15T16:51:20;6.50;87.90
75436;DHT22;64014;53.432;14.534;2022-11-15T16:53:46;6.50;88.00
75436;DHT22;64014;53.432;14.534;2022-11-15T16:56:27;6.50;87.90
75436;DHT22;64014;53.432;14.534;2022-11-15T16:58:57;6.50;88.10
75436;DHT22;64014;53.432;14.534;2022-11-15T17:01:25;6.50;88.20
75436;DHT22;64014;53.432;14.534;2022-11-15T17:03:51;6.50;88.30
75436;DHT22;64014;53.432;14.534;2022-11-15T17:06:18;6.50;88.30
75436;DHT22;64014;53.432;14.534;2022-11-15T17:08:44;6.50;88.40
75436;DHT22;64014;53.432;14.534;2022-11-15T17:11:19;6.50;88.40
75436;DHT22;64014;53.432;14.534;2022-11-15T17:13:45;6.60;88.50
75436;DHT22;64014;53.432;14.534;2022-11-15T17:16:13;6.70;88.30
75436;DHT22;64014;53.432;14.534;2022-11-15T17:18:40;6.70;88.00
75436;DHT22;64014;53.432;14.534;2022-11-15T17:21:16;6.70;87.90
75436;DHT22;64014;53.432;14.534;2022-11-15T17:23:42;6.80;87.80
75436;DHT22;64014;53.432;14.534;2022-11-15T17:26:10;6.80;87.70
75436;DHT22;64014;53.432;14.534;2022-11-15T17:28:38;6.80;87.60
75436;DHT22;64014;53.432;14.534;2022-11-15T17:31:08;6.90;87.40
75436;DHT22;64014;53.432;14.534;2022-11-15T17:33:35;6.90;87.30
75436;DHT22;64014;53.432;14.534;2022-11-15T17:36:04;7.00;87.10
75436;DHT22;64014;53.432;14.534;2022-11-15T17:38:30;7.00;86.90
75436;DHT22;64014;53.432;14.534;2022-11-15T17:41:05;7.00;86.80
75436;DHT22;64014;53.432;14.534;2022-11-15T17:43:34;7.00;86.60
75436;DHT22;64014;53.432;14.534;2022-11-15T17:46:04;7.00;86.50
75436;DHT22;64014;53.432;14.534;2022-11-15T17:48:30;7.00;86.20
75436;DHT22;64014;53.432;14.534;2022-11-15T17:51:06;7.10;86.00
75436;DHT22;64014;53.432;14.534;2022-11-15T17:53:35;7.20;85.80
75436;DHT22;64014;53.432;14.534;2022-11-15T17:56:07;7.20;85.70
75436;DHT22;64014;53.432;14.534;2022-11-15T17:58:33;7.30;85.40
75436;DHT22;64014;53.432;14.534;2022-11-15T18:01:09;7.30;85.20
75436;DHT22;64014;53.432;14.534;2022-11-15T18:03:37;7.40;85.00
75436;DHT22;64014;53.432;14.534;2022-11-15T18:06:07;7.40;84.60
75436;DHT22;64014;53.432;14.534;2022-11-15T18:08:40;7.40;84.50
75436;DHT22;64014;53.432;14.534;2022-11-15T18:11:13;7.30;84.10
75436;DHT22;64014;53.432;14.534;2022-11-15T18:13:41;7.20;84.00
75436;DHT22;64014;53.432;14.534;2022-11-15T18:16:13;7.20;84.10
75436;DHT22;64014;53.432;14.534;2022-11-15T18:18:41;7.10;84.30
75436;DHT22;64014;53.432;14.534;2022-11-15T18:21:12;7.00;84.50
75436;DHT22;64014;53.432;14.534;2022-11-15T18:23:40;7.00;84.70
75436;DHT22;64014;53.432;14.534;2022-11-15T18:26:06;6.90;85.00
75436;DHT22;64014;53.432;14.534;2022-11-15T18:28:36;6.90;85.20
75436;DHT22;64014;53.432;14.534;2022-11-15T18:31:03;6.90;85.40
75436;DHT22;64014;53.432;14.534;2022-11-15T18:33:32;7.00;85.30
75436;DHT22;64014;53.432;14.534;2022-11-15T18:36:10;7.00;85.40
75436;DHT22;64014;53.432;14.534;2022-11-15T18:38:36;6.90;85.50
75436;DHT22;64014;53.432;14.534;2022-11-15T18:41:13;6.90;85.60
75436;DHT22;64014;53.432;14.534;2022-11-15T18:43:42;6.90;85.70
75436;DHT22;64014;53.432;14.534;2022-11-15T18:46:14;6.90;85.80
75436;DHT22;64014;53.432;14.534;2022-11-15T18:48:41;6.80;85.70
75436;DHT22;64014;53.432;14.534;2022-11-15T18:51:09;6.80;85.90
75436;DHT22;64014;53.432;14.534;2022-11-15T18:53:36;6.80;86.00
75436;DHT22;64014;53.432;14.534;2022-11-15T18:56:06;6.80;86.20
75436;DHT22;64014;53.432;14.534;2022-11-15T18:58:39;6.70;86.30
75436;DHT22;64014;53.432;14.534;2022-11-15T19:01:08;6.70;86.40
75436;DHT22;64014;53.432;14.534;2022-11-15T19:03:36;6.70;86.70
75436;DHT22;64014;53.432;14.534;2022-11-15T19:06:08;6.60;86.90
75436;DHT22;64014;53.432;14.534;2022-11-15T19:08:37;6.60;86.90
75436;DHT22;64014;53.432;14.534;2022-11-15T19:11:16;6.60;86.80
75436;DHT22;64014;53.432;14.534;2022-11-15T19:13:43;6.60;86.80
75436;DHT22;64014;53.432;14.534;2022-11-15T19:16:13;6.60;86.70
75436;DHT22;64014;53.432;14.534;2022-11-15T19:18:39;6.60;86.70
75436;DHT22;64014;53.432;14.534;2022-11-15T19:21:07;6.50;86.90
75436;DHT22;64014;53.432;14.534;2022-11-15T19:23:35;6.50;87.10
75436;DHT22;64014;53.432;14.534;2022-11-15T19:26:02;6.40;87.30
75436;DHT22;64014;53.432;14.534;2022-11-15T19:28:29;6.40;87.50
75436;DHT22;64014;53.432;14.534;2022-11-15T19:31:11;6.40;87.60
75436;DHT22;64014;53.432;14.534;2022-11-15T19:33:38;6.40;87.80
75436;DHT22;64014;53.432;14.534;2022-11-15T19:38:38;6.40;87.70
75436;DHT22;64014;53.432;14.534;2022-11-15T19:41:06;6.40;87.60
75436;DHT22;64014;53.432;14.534;2022-11-15T19:43:32;6.40;87.50
75436;DHT22;64014;53.432;14.534;2022-11-15T19:46:00;6.40;87.60
75436;DHT22;64014;53.432;14.534;2022-11-15T19:48:28;6.40;87.70
75436;DHT22;64014;53.432;14.534;2022-11-15T19:50:54;6.40;87.60
75436;DHT22;64014;53.432;14.534;2022-11-15T19:53:19;6.40;87.60
75436;DHT22;64014;53.432;14.534;2022-11-15T19:55:59;6.40;87.50
75436;DHT22;64014;53.432;14.534;2022-11-15T19:58:26;6.40;87.50
75436;DHT22;64014;53.432;14.534;2022-11-15T20:01:15;6.40;87.50
75436;DHT22;64014;53.432;14.534;2022-11-15T20:03:42;6.40;87.70
75436;DHT22;64014;53.432;14.534;2022-11-15T20:06:11;6.40;87.70
75436;DHT22;64014;53.432;14.534;2022-11-15T20:08:37;6.40;87.50
75436;DHT22;64014;53.432;14.534;2022-11-15T20:11:04;6.30;87.50
75436;DHT22;64014;53.432;14.534;2022-11-15T20:13:30;6.30;87.50
75436;DHT22;64014;53.432;14.534;2022-11-15T20:15:56;6.30;87.60
75436;DHT22;64014;53.432;14.534;2022-11-15T20:18:23;6.20;87.70
75436;DHT22;64014;53.432;14.534;2022-11-15T20:20:50;6.20;87.70
75436;DHT22;64014;53.432;14.534;2022-11-15T20:23:16;6.30;87.80
75436;DHT22;64014;53.432;14.534;2022-11-15T20:25:46;6.30;87.70
75436;DHT22;64014;53.432;14.534;2022-11-15T20:28:17;6.30;87.60
75436;DHT22;64014;53.432;14.534;2022-11-15T20:30:45;6.30;87.60
75436;DHT22;64014;53.432;14.534;2022-11-15T20:33:12;6.30;87.60
75436;DHT22;64014;53.432;14.534;2022-11-15T20:35:38;6.40;87.70
75436;DHT22;64014;53.432;14.534;2022-11-15T20:38:06;6.40;87.20
75436;DHT22;64014;53.432;14.534;2022-11-15T20:40:32;6.40;87.10
75436;DHT22;64014;53.432;14.534;2022-11-15T20:42:58;6.40;87.00
75436;DHT22;64014;53.432;14.534;2022-11-15T20:45:24;6.50;87.00
75436;DHT22;64014;53.432;14.534;2022-11-15T20:47:49;6.50;86.80
75436;DHT22;64014;53.432;14.534;2022-11-15T20:50:16;6.40;86.70
75436;DHT22;64014;53.432;14.534;2022-11-15T20:52:42;6.50;86.40
75436;DHT22;64014;53.432;14.534;2022-11-15T20:55:08;6.40;86.30
75436;DHT22;64014;53.432;14.534;2022-11-15T20:57:33;6.40;86.30
75436;DHT22;64014;53.432;14.534;2022-11-15T20:59:59;6.40;86.40
75436;DHT22;64014;53.432;14.534;2022-11-15T21:02:25;6.50;86.40
75436;DHT22;64014;53.432;14.534;2022-11-15T21:04:51;6.50;86.30
75436;DHT22;64014;53.432;14.534;2022-11-15T21:07:17;6.60;86.30
75436;DHT22;64014;53.432;14.534;2022-11-15T21:09:42;6.60;86.10
75436;DHT22;64014;53.432;14.534;2022-11-15T21:12:27;6.60;86.00
75436;DHT22;64014;53.432;14.534;2022-11-15T21:14:52;6.70;86.00
75436;DHT22;64014;53.432;14.534;2022-11-15T21:17:18;6.70;85.90
75436;DHT22;64014;53.432;14.534;2022-11-15T21:19:44;6.80;85.50
75436;DHT22;64014;53.432;14.534;2022-11-15T21:22:12;6.80;85.10
75436;DHT22;64014;53.432;14.534;2022-11-15T21:24:39;6.80;84.70
75436;DHT22;64014;53.432;14.534;2022-11-15T21:27:05;6.80;84.50
75436;DHT22;64014;53.432;14.534;2022-11-15T21:29:31;6.70;84.50
75436;DHT22;64014;53.432;14.534;2022-11-15T21:32:07;6.70;84.70
75436;DHT22;64014;53.432;14.534;2022-11-15T21:34:34;6.70;84.80
75436;DHT22;64014;53.432;14.534;2022-11-15T21:37:00;6.70;84.90
75436;DHT22;64014;53.432;14.534;2022-11-15T21:39:26;6.70;84.90
75436;DHT22;64014;53.432;14.534;2022-11-15T21:41:52;6.60;84.90
75436;DHT22;64014;53.432;14.534;2022-11-15T21:44:17;6.60;84.70
75436;DHT22;64014;53.432;14.534;2022-11-15T21:46:43;6.50;84.90
75436;DHT22;64014;53.432;14.534;2022-11-15T21:49:09;6.40;85.20
75436;DHT22;64014;53.432;14.534;2022-11-15T21:51:35;6.40;85.40
75436;DHT22;64014;53.432;14.534;2022-11-15T21:54:01;6.30;85.40
75436;DHT22;64014;53.432;14.534;2022-11-15T21:56:28;6.30;85.60
75436;DHT22;64014;53.432;14.534;2022-11-15T21:58:55;6.30;85.80
75436;DHT22;64014;53.432;14.534;2022-11-15T22:01:22;6.30;86.00
75436;DHT22;64014;53.432;14.534;2022-11-15T22:04:07;6.30;85.90
75436;DHT22;64014;53.432;14.534;2022-11-15T22:06:33;6.30;86.20
75436;DHT22;64014;53.432;14.534;2022-11-15T22:08:59;6.30;86.60
75436;DHT22;64014;53.432;14.534;2022-11-15T22:11:25;6.30;86.60
75436;DHT22;64014;53.432;14.534;2022-11-15T22:13:51;6.40;86.50
75436;DHT22;64014;53.432;14.534;2022-11-15T22:16:17;6.40;86.30
75436;DHT22;64014;53.432;14.534;2022-11-15T22:18:43;6.50;85.90
75436;DHT22;64014;53.432;14.534;2022-11-15T22:21:11;6.50;85.40
75436;DHT22;64014;53.432;14.534;2022-11-15T22:23:37;6.50;85.20
75436;DHT22;64014;53.432;14.534;2022-11-15T22:26:14;6.60;85.00
75436;DHT22;64014;53.432;14.534;2022-11-15T22:28:43;6.60;84.50
75436;DHT22;64014;53.432;14.534;2022-11-15T22:31:09;6.50;84.20
75436;DHT22;64014;53.432;14.534;2022-11-15T22:33:36;6.40;84.20
75436;DHT22;64014;53.432;14.534;2022-11-15T22:36:03;6.40;84.40
75436;DHT22;64014;53.432;14.534;2022-11-15T22:38:29;6.30;84.50
75436;DHT22;64014;53.432;14.534;2022-11-15T22:40:56;6.30;84.70
75436;DHT22;64014;53.432;14.534;2022-11-15T22:43:24;6.40;84.70
75436;DHT22;64014;53.432;14.534;2022-11-15T22:45:54;6.50;84.70
75436;DHT22;64014;53.432;14.534;2022-11-15T22:48:25;6.50;84.50
75436;DHT22;64014;53.432;14.534;2022-11-15T22:50:51;6.50;84.50
75436;DHT22;64014;53.432;14.534;2022-11-15T22:53:18;6.60;84.50
75436;DHT22;64014;53.432;14.534;2022-11-15T22:55:50;6.60;84.40
75436;DHT22;64014;53.432;14.534;2022-11-15T22:58:16;6.60;84.50
75436;DHT22;64014;53.432;14.534;2022-11-15T23:00:42;6.70;84.30
75436;DHT22;64014;53.432;14.534;2022-11-15T23:03:08;6.70;84.30
75436;DHT22;64014;53.432;14.534;2022-11-15T23:05:33;6.70;84.20
75436;DHT22;64014;53.432;14.534;2022-11-15T23:08:01;6.60;84.20
75436;DHT22;64014;53.432;14.534;2022-11-15T23:10:27;6.60;84.10
75436;DHT22;64014;53.432;14.534;2022-11-15T23:13:12;6.50;84.20
75436;DHT22;64014;53.432;14.534;2022-11-15T23:15:42;6.50;84.00
75436;DHT22;64014;53.432;14.534;2022-11-15T23:18:27;6.40;84.10
75436;DHT22;64014;53.432;14.534;2022-11-15T23:20:55;6.40;84.20
75436;DHT22;64014;53.432;14.534;2022-11-15T23:23:21;6.30;84.20
75436;DHT22;64014;53.432;14.534;2022-11-15T23:25:46;6.30;84.30
75436;DHT22;64014;53.432;14.534;2022-11-15T23:28:12;6.30;84.50
75436;DHT22;64014;53.432;14.534;2022-11-15T23:30:38;6.20;84.60
75436;DHT22;64014;53.432;14.534;2022-11-15T23:33:22;6.20;84.70
75436;DHT22;64014;53.432;14.534;2022-11-15T23:36:07;6.30;84.80
75436;DHT22;64014;53.432;14.534;2022-11-15T23:38:36;6.40;84.80
75436;DHT22;64014;53.432;14.534;2022-11-15T23:41:04;6.40;84.60
75436;DHT22;64014;53.432;14.534;2022-11-15T23:43:30;6.50;84.50
75436;DHT22;64014;53.432;14.534;2022-11-15T23:45:56;6.50;84.30